Pagina principale
METAR-TAF:

METAR-TAF

Aeroporti :

Middleton Island, Alaska, Stati Uniti

latitudine: 59-26N, longitudine: 146-18W, altezza: 27 m

Osservazione

Il bollettino è stato emesso 9 minuti fa, alle 00:30 UTC
Vento 4 kt da nord
Temperature 6°C
Umidità 100%
Pressione 988 hPa
Visibilità: 8.0 km
Poco nuvoloso ad un'altezza di 400 ft
Nuvoloso ad un'altezza di 900 ft
Nuvoloso ad un'altezza di 1400 ft
pioggia debole, foschia

METAR: PAMD 210030Z AUTO 36004KT 5SM -RA BR FEW004 BKN009 BKN014 06/06 A2919 RMK AO2 RAB30 CIG 007V012 P0000

Ora: 15:39 (00:39 UTC)


TAF: mancante

Osservazioni e previsioni meteorologiche di più di 4000 aeroporti (messaggi METAR e TAF).

Le stazioni disponibili sono rappresentate dai dischi gialli e rossi sulla carta.

Puntare il mouse per vedere il nome della stazione.

Clicca sopra per visualizzare le osservazioni e previsioni meteorologiche.

Per cambiare la mappa : fare clic sui pulsanti verdi con una croce nera per ingrandire, il pulsante verde con un trattino per diminuire, o sulla freccia verde per le mappe adiacenti.


METAR-TAF: